Time;durP1;ratioP1;P1;durP2;ratioP2;P2;SDS_P1;SDS_P2;PMS_P1;PMS_P2;Temp;Humidity;BMP_temperature;BMP_pressure;BME280_temperature;BME280_humidity;BME280_pressure;Samples;Min_cycle;Max_cycle;Signal;HPM_P1;HPM_P2
2023/07/06 00:01:03;;;;;;;13.10;8.63;;;12.50;99.90;;;;;;4956392;28;20145;-73
2023/07/06 00:03:31;;;;;;;11.20;7.55;;;12.50;99.90;;;;;;4956645;28;20038;-74
2023/07/06 00:05:58;;;;;;;14.10;8.70;;;12.50;99.90;;;;;;4973013;28;20487;-74
2023/07/06 00:08:23;;;;;;;15.10;8.73;;;12.40;99.90;;;;;;4972999;28;20082;-73
2023/07/06 00:10:50;;;;;;;14.15;8.88;;;12.40;99.90;;;;;;4972878;28;20518;-73
2023/07/06 00:13:17;;;;;;;15.90;9.15;;;12.40;99.90;;;;;;4972849;28;20055;-74
2023/07/06 00:15:43;;;;;;;14.25;9.50;;;12.40;99.90;;;;;;4957140;28;20050;-74
2023/07/06 00:18:10;;;;;;;14.77;8.98;;;12.30;99.90;;;;;;4976325;28;20053;-74
2023/07/06 00:20:39;;;;;;;13.68;8.60;;;12.40;99.90;;;;;;4976436;28;20095;-74
2023/07/06 00:23:06;;;;;;;13.93;9.32;;;12.40;99.90;;;;;;4975982;28;20042;-73
2023/07/06 00:25:33;;;;;;;13.52;8.75;;;12.30;99.90;;;;;;4976267;28;20038;-74
2023/07/06 00:28:01;;;;;;;13.20;9.30;;;12.30;99.90;;;;;;4944253;28;20057;-75
2023/07/06 00:30:40;;;;;;;12.82;9.43;;;12.30;99.90;;;;;;4959993;28;20130;-75
2023/07/06 00:33:13;;;;;;;16.25;9.63;;;12.30;99.90;;;;;;4975784;28;20047;-75
2023/07/06 00:35:40;;;;;;;18.00;9.98;;;12.20;99.90;;;;;;4975722;28;20039;-75
2023/07/06 00:38:10;;;;;;;14.20;9.48;;;12.20;99.90;;;;;;4959644;28;20149;-75
2023/07/06 00:40:40;;;;;;;13.07;9.35;;;12.20;99.90;;;;;;4944428;28;20084;-75
2023/07/06 00:43:17;;;;;;;13.60;9.68;;;12.20;99.90;;;;;;4943636;28;20105;-75
2023/07/06 00:45:45;;;;;;;13.48;8.70;;;12.20;99.90;;;;;;4975654;28;20046;-75
2023/07/06 00:48:20;;;;;;;13.88;8.68;;;12.10;99.90;;;;;;4959897;28;20382;-76
2023/07/06 00:50:52;;;;;;;13.75;9.65;;;12.10;99.90;;;;;;4975714;28;20057;-75
2023/07/06 00:53:21;;;;;;;13.95;9.85;;;12.10;99.90;;;;;;4975668;28;20398;-75
2023/07/06 00:55:47;;;;;;;12.63;8.73;;;12.10;99.90;;;;;;4975588;28;20046;-75
2023/07/06 00:58:24;;;;;;;12.68;9.73;;;12.10;99.90;;;;;;4975399;28;20082;-75
2023/07/06 01:00:53;;;;;;;13.10;10.32;;;12.10;99.90;;;;;;4975131;28;20061;-75
2023/07/06 01:03:19;;;;;;;16.15;11.50;;;12.00;99.90;;;;;;4959166;28;20069;-75
2023/07/06 01:05:49;;;;;;;15.18;10.07;;;12.00;99.90;;;;;;4975541;28;20130;-75
2023/07/06 01:08:19;;;;;;;12.68;8.90;;;12.00;99.90;;;;;;4975111;28;20082;-75
2023/07/06 01:10:46;;;;;;;14.70;10.55;;;11.90;99.90;;;;;;4959313;28;20109;-76
2023/07/06 01:13:12;;;;;;;12.57;8.88;;;11.90;99.90;;;;;;4959223;28;20089;-75
2023/07/06 01:16:01;;;;;;;15.38;10.45;;;11.90;99.90;;;;;;4975243;28;20077;-76
2023/07/06 01:18:32;;;;;;;14.63;9.38;;;11.90;99.90;;;;;;4974632;28;20110;-74
2023/07/06 01:21:18;;;;;;;13.00;8.90;;;11.80;99.90;;;;;;4974875;28;20053;-75
2023/07/06 01:24:07;;;;;;;13.45;8.70;;;11.80;99.90;;;;;;4974912;28;20058;-75
2023/07/06 01:27:11;;;;;;;15.43;9.52;;;11.80;99.90;;;;;;4958596;28;20074;-75
2023/07/06 01:29:52;;;;;;;11.43;8.30;;;11.90;99.90;;;;;;4974577;28;20046;-75
2023/07/06 01:32:25;;;;;;;12.95;8.85;;;11.80;99.90;;;;;;4974679;28;20046;-75
2023/07/06 01:35:02;;;;;;;11.20;8.27;;;11.80;99.90;;;;;;4974893;28;20557;-76
2023/07/06 01:37:36;;;;;;;14.45;9.98;;;11.80;99.90;;;;;;4974653;28;20046;-75
2023/07/06 01:40:05;;;;;;;14.52;9.80;;;11.70;99.90;;;;;;4974606;28;20038;-75
2023/07/06 01:42:35;;;;;;;14.57;10.18;;;11.70;99.90;;;;;;4975716;28;20445;-75
2023/07/06 01:45:08;;;;;;;12.73;8.15;;;11.70;99.90;;;;;;4974793;28;20042;-75
2023/07/06 01:47:41;;;;;;;12.80;8.23;;;11.70;99.90;;;;;;4974704;28;20451;-75
2023/07/06 01:50:11;;;;;;;11.65;8.70;;;11.60;99.90;;;;;;4958865;28;20205;-75
2023/07/06 01:52:53;;;;;;;11.73;7.95;;;11.60;99.90;;;;;;4974263;28;20050;-75
2023/07/06 01:55:29;;;;;;;11.15;7.82;;;11.60;99.90;;;;;;4974303;28;20076;-76
2023/07/06 01:58:07;;;;;;;16.20;9.98;;;11.60;99.90;;;;;;4974181;28;20043;-76
2023/07/06 02:00:36;;;;;;;12.00;9.05;;;11.60;99.90;;;;;;4974058;28;20067;-76
2023/07/06 02:03:05;;;;;;;13.32;8.88;;;11.60;99.90;;;;;;4957812;28;20074;-76
2023/07/06 02:05:33;;;;;;;11.00;7.53;;;11.60;99.90;;;;;;4974352;28;20517;-75
2023/07/06 02:07:59;;;;;;;12.95;9.30;;;11.60;99.90;;;;;;4958150;28;20070;-75
2023/07/06 02:10:25;;;;;;;11.15;7.00;;;11.60;99.90;;;;;;4974192;28;20047;-76
2023/07/06 02:12:51;;;;;;;12.48;8.48;;;11.60;99.90;;;;;;4974252;28;20046;-75
2023/07/06 02:15:20;;;;;;;11.13;8.02;;;11.50;99.90;;;;;;4941865;28;20046;-76
2023/07/06 02:17:47;;;;;;;11.35;8.23;;;11.50;99.90;;;;;;4973909;28;20056;-76
2023/07/06 02:20:15;;;;;;;11.27;8.30;;;11.50;99.90;;;;;;4973808;28;20049;-76
2023/07/06 02:22:42;;;;;;;11.38;7.68;;;11.50;99.90;;;;;;4973820;28;20038;-76
2023/07/06 02:25:08;;;;;;;12.45;8.63;;;11.50;99.90;;;;;;4941684;28;20078;-76
2023/07/06 02:27:33;;;;;;;15.80;11.07;;;11.50;99.90;;;;;;4973803;28;20042;-75
2023/07/06 02:29:59;;;;;;;12.50;9.23;;;11.50;99.90;;;;;;4957753;28;20093;-75
2023/07/06 02:32:26;;;;;;;12.73;8.88;;;11.50;99.90;;;;;;4973663;28;20038;-74
2023/07/06 02:34:53;;;;;;;11.55;8.57;;;11.50;99.90;;;;;;4973486;28;20093;-74
2023/07/06 02:37:19;;;;;;;13.68;9.07;;;11.50;99.90;;;;;;4973566;28;20121;-76
2023/07/06 02:39:45;;;;;;;12.45;8.18;;;11.50;99.90;;;;;;4957411;28;20467;-75
2023/07/06 02:42:14;;;;;;;15.38;10.02;;;11.50;99.90;;;;;;4973402;28;20097;-76
2023/07/06 02:44:40;;;;;;;14.73;10.65;;;11.60;99.90;;;;;;4973720;28;20089;-75
2023/07/06 02:47:08;;;;;;;12.30;9.55;;;11.60;99.90;;;;;;4973353;28;20133;-76
2023/07/06 02:49:34;;;;;;;12.88;9.40;;;11.60;99.90;;;;;;4957661;28;20121;-76
2023/07/06 02:52:03;;;;;;;13.82;10.15;;;11.60;99.90;;;;;;4973306;28;20042;-75
2023/07/06 02:54:28;;;;;;;12.65;9.48;;;11.70;99.90;;;;;;4973292;28;20047;-75
2023/07/06 02:56:56;;;;;;;11.95;8.30;;;11.60;99.90;;;;;;4957243;28;20046;-75
2023/07/06 02:59:22;;;;;;;10.15;7.13;;;11.70;99.90;;;;;;4956987;28;20122;-75
2023/07/06 03:01:48;;;;;;;14.20;9.27;;;11.70;99.90;;;;;;4957392;28;20517;-76
2023/07/06 03:04:17;;;;;;;13.05;8.90;;;11.70;99.90;;;;;;4957406;28;20049;-76
2023/07/06 03:06:45;;;;;;;12.65;9.13;;;11.70;99.90;;;;;;4957622;28;20170;-76
2023/07/06 03:09:11;;;;;;;13.88;9.70;;;11.70;99.90;;;;;;4973440;28;20598;-76
2023/07/06 03:11:37;;;;;;;15.38;10.13;;;11.70;99.90;;;;;;4956994;28;20039;-76
2023/07/06 03:14:04;;;;;;;13.13;9.32;;;11.70;99.90;;;;;;4957007;28;20038;-76
2023/07/06 03:16:39;;;;;;;12.85;8.90;;;11.70;99.90;;;;;;4956956;28;20042;-76
2023/07/06 03:19:06;;;;;;;16.13;10.93;;;11.70;99.90;;;;;;4956969;28;20053;-76
2023/07/06 03:21:33;;;;;;;16.30;10.48;;;11.70;99.90;;;;;;4972901;28;20126;-75
2023/07/06 03:23:59;;;;;;;16.33;11.00;;;11.70;99.90;;;;;;4940994;28;20045;-75
2023/07/06 03:26:24;;;;;;;14.25;10.55;;;11.70;99.90;;;;;;4956949;28;20038;-75
2023/07/06 03:28:50;;;;;;;17.88;12.40;;;11.70;99.90;;;;;;4956856;28;20047;-75
2023/07/06 03:31:16;;;;;;;15.70;11.02;;;11.70;99.90;;;;;;4973127;28;20502;-74
2023/07/06 03:33:42;;;;;;;14.07;9.35;;;11.70;99.90;;;;;;4972972;28;20066;-75
2023/07/06 03:36:08;;;;;;;13.50;9.70;;;11.70;99.90;;;;;;4941068;28;20608;-75
2023/07/06 03:38:35;;;;;;;11.45;8.65;;;11.70;99.90;;;;;;4973162;28;20039;-75
2023/07/06 03:41:04;;;;;;;15.10;10.57;;;11.70;99.90;;;;;;4972825;28;20043;-74
2023/07/06 03:43:31;;;;;;;15.57;10.60;;;11.70;99.90;;;;;;4940882;28;20138;-76
2023/07/06 03:45:57;;;;;;;15.02;10.30;;;11.70;99.90;;;;;;4973071;28;20050;-76
2023/07/06 03:48:23;;;;;;;15.70;11.43;;;11.80;99.90;;;;;;4972729;28;20039;-75
2023/07/06 03:50:52;;;;;;;18.98;12.75;;;11.80;99.90;;;;;;4973420;28;20042;-75
2023/07/06 03:53:21;;;;;;;13.75;10.75;;;11.70;99.90;;;;;;4960456;28;20077;-74
2023/07/06 03:55:51;;;;;;;11.05;9.05;;;11.70;99.90;;;;;;4977750;28;20557;-75
2023/07/06 03:58:21;;;;;;;13.90;10.13;;;11.80;99.90;;;;;;4976397;28;20090;-75
2023/07/06 04:00:47;;;;;;;16.40;10.55;;;11.80;99.90;;;;;;4976295;28;20102;-75
2023/07/06 04:03:13;;;;;;;14.50;10.88;;;11.80;99.90;;;;;;4976391;28;20517;-75
2023/07/06 04:05:44;;;;;;;20.10;12.73;;;11.90;99.90;;;;;;4976313;28;20125;-75
2023/07/06 04:08:16;;;;;;;17.67;11.57;;;11.90;99.90;;;;;;4976465;28;20505;-75
2023/07/06 04:10:42;;;;;;;14.57;11.00;;;11.90;99.90;;;;;;4976276;28;20046;-75
2023/07/06 04:13:09;;;;;;;17.63;11.98;;;11.90;99.90;;;;;;4960046;28;20097;-75
2023/07/06 04:15:39;;;;;;;15.25;12.25;;;12.00;99.90;;;;;;4960327;28;20402;-75
2023/07/06 04:18:05;;;;;;;21.65;12.95;;;12.00;99.90;;;;;;4960271;28;20047;-75
2023/07/06 04:20:34;;;;;;;21.33;14.05;;;12.10;99.90;;;;;;4960237;28;20046;-75
2023/07/06 04:23:00;;;;;;;16.77;11.75;;;12.10;99.90;;;;;;4959802;28;20429;-75
2023/07/06 04:25:31;;;;;;;17.52;12.60;;;12.10;99.90;;;;;;4960119;28;20043;-75
2023/07/06 04:28:05;;;;;;;18.38;13.13;;;12.20;99.90;;;;;;4960071;28;20047;-75
2023/07/06 04:30:33;;;;;;;21.40;13.65;;;12.30;99.90;;;;;;4976283;28;20517;-75
2023/07/06 04:32:59;;;;;;;20.98;13.80;;;12.30;99.90;;;;;;4959738;28;20047;-75
2023/07/06 04:35:26;;;;;;;21.65;13.38;;;12.30;99.90;;;;;;4959697;28;20085;-75
2023/07/06 04:37:53;;;;;;;21.13;13.75;;;12.40;99.90;;;;;;4975603;28;20054;-75
2023/07/06 04:40:20;;;;;;;23.08;15.38;;;12.50;99.90;;;;;;4975978;28;20053;-75
2023/07/06 04:42:54;;;;;;;19.13;13.60;;;12.50;99.90;;;;;;4943810;28;20069;-75
2023/07/06 04:45:22;;;;;;;20.45;13.02;;;12.50;99.90;;;;;;4975865;28;20058;-75
2023/07/06 04:47:48;;;;;;;21.00;14.88;;;12.60;99.90;;;;;;4975856;28;20035;-74
2023/07/06 04:50:22;;;;;;;19.63;13.90;;;12.60;99.90;;;;;;4959470;28;20173;-75
2023/07/06 04:52:55;;;;;;;21.05;14.52;;;12.70;99.90;;;;;;4975765;28;20045;-75
2023/07/06 04:55:25;;;;;;;21.80;14.52;;;12.70;99.90;;;;;;4959375;28;20047;-75
2023/07/06 04:57:55;;;;;;;20.08;15.68;;;12.80;99.90;;;;;;4975338;28;20046;-75
2023/07/06 05:00:30;;;;;;;18.80;15.07;;;12.90;99.90;;;;;;4975369;28;20514;-75
2023/07/06 05:02:58;;;;;;;24.50;16.80;;;12.90;99.90;;;;;;4975157;28;20054;-75
2023/07/06 05:05:26;;;;;;;20.45;13.60;;;13.00;99.90;;;;;;4975242;28;20046;-75
2023/07/06 05:07:53;;;;;;;18.52;14.45;;;13.00;99.90;;;;;;4975361;28;20046;-75
2023/07/06 05:10:20;;;;;;;20.25;14.77;;;13.00;99.90;;;;;;4943335;28;20041;-74
2023/07/06 05:12:47;;;;;;;19.38;14.32;;;13.10;99.90;;;;;;4959299;28;20058;-75
2023/07/06 05:15:14;;;;;;;22.65;16.02;;;13.10;99.90;;;;;;4958913;28;20042;-74
2023/07/06 05:17:40;;;;;;;26.45;17.23;;;13.20;99.90;;;;;;4974978;28;20133;-74
2023/07/06 05:20:07;;;;;;;23.73;17.65;;;13.40;99.90;;;;;;4974810;28;20137;-75
2023/07/06 05:22:39;;;;;;;19.60;15.02;;;14.00;99.90;;;;;;4974789;28;20050;-75
2023/07/06 05:25:06;;;;;;;;;;;14.40;99.90;;;;;;4975227;28;20101;-75
2023/07/06 05:27:32;;;;;;;17.92;13.60;;;14.80;99.90;;;;;;4975092;28;19918;-74
2023/07/06 05:29:58;;;;;;;16.08;12.27;;;15.20;99.90;;;;;;4974800;28;20043;-74
2023/07/06 05:32:24;;;;;;;18.17;13.48;;;15.40;99.90;;;;;;4959052;28;20403;-73
2023/07/06 05:34:53;;;;;;;16.10;11.32;;;15.70;99.90;;;;;;4974901;28;20051;-73
2023/07/06 05:37:19;;;;;;;17.23;12.00;;;15.90;99.90;;;;;;4974607;28;20051;-73
2023/07/06 05:39:45;;;;;;;17.10;12.32;;;15.90;99.90;;;;;;4958503;28;20046;-73
2023/07/06 05:42:12;;;;;;;17.30;11.38;;;16.40;99.90;;;;;;4958412;28;20051;-74
2023/07/06 05:44:39;;;;;;;16.08;11.45;;;16.40;99.90;;;;;;4974478;28;20050;-74
2023/07/06 05:47:07;;;;;;;16.30;12.02;;;16.70;99.90;;;;;;4974755;28;20043;-73
2023/07/06 05:49:33;;;;;;;14.65;10.30;;;17.10;99.90;;;;;;4958594;28;20043;-74
2023/07/06 05:51:59;;;;;;;15.23;10.75;;;17.50;99.90;;;;;;4958463;28;20078;-72
2023/07/06 05:54:25;;;;;;;16.67;10.48;;;17.60;99.90;;;;;;4974211;28;20501;-74
2023/07/06 05:56:52;;;;;;;17.40;11.23;;;17.90;99.90;;;;;;4974494;28;20035;-74
2023/07/06 05:59:19;;;;;;;14.13;9.82;;;18.10;99.90;;;;;;4974214;28;20049;-74
2023/07/06 06:01:45;;;;;;;15.77;9.95;;;18.70;99.90;;;;;;4974121;28;20137;-75
2023/07/06 06:04:12;;;;;;;14.07;9.43;;;19.00;99.90;;;;;;4974124;28;20074;-74
2023/07/06 06:06:54;;;;;;;16.50;8.95;;;19.30;99.90;;;;;;4942165;28;20039;-74
2023/07/06 06:09:21;;;;;;;16.92;9.73;;;19.30;99.90;;;;;;4974092;28;20039;-75
2023/07/06 06:11:50;;;;;;;15.07;9.02;;;19.30;99.90;;;;;;4975291;28;20078;-75
2023/07/06 06:14:16;;;;;;;14.68;8.75;;;19.50;99.90;;;;;;4957952;28;20047;-74
2023/07/06 06:16:42;;;;;;;14.25;8.23;;;19.90;99.90;;;;;;4942179;28;20130;-74
2023/07/06 06:19:09;;;;;;;15.45;8.07;;;20.00;99.90;;;;;;4957811;28;20134;-74
2023/07/06 06:21:35;;;;;;;14.63;8.52;;;20.30;99.90;;;;;;4975054;28;20035;-74
2023/07/06 06:24:02;;;;;;;14.32;8.80;;;20.60;99.90;;;;;;4957673;28;20046;-74
2023/07/06 06:26:29;;;;;;;12.07;8.30;;;21.20;99.90;;;;;;4957893;28;20045;-74
2023/07/06 06:28:57;;;;;;;14.68;9.00;;;21.30;99.90;;;;;;4975244;28;20053;-74
2023/07/06 06:31:24;;;;;;;14.13;7.10;;;21.60;99.90;;;;;;4957761;28;20447;-75
2023/07/06 06:33:50;;;;;;;13.65;8.00;;;21.50;99.90;;;;;;4973489;28;20089;-75
2023/07/06 06:36:18;;;;;;;13.52;8.48;;;21.70;99.90;;;;;;4988112;28;20493;-75
2023/07/06 06:38:44;;;;;;;13.95;7.88;;;21.80;99.90;;;;;;4972819;28;20047;-74
2023/07/06 06:41:10;;;;;;;11.93;7.72;;;21.30;99.90;;;;;;4956610;28;20491;-74
2023/07/06 06:43:41;;;;;;;14.15;8.05;;;20.90;99.90;;;;;;4956561;28;20061;-74
2023/07/06 06:46:08;;;;;;;14.20;8.32;;;20.50;99.90;;;;;;4973695;28;20502;-74
2023/07/06 06:48:35;;;;;;;14.18;7.97;;;20.40;99.90;;;;;;4957884;28;20038;-74
2023/07/06 06:51:02;;;;;;;13.93;8.55;;;20.00;99.90;;;;;;4973638;28;20035;-74
2023/07/06 06:53:28;;;;;;;14.60;8.27;;;19.70;99.90;;;;;;4957441;28;20058;-74
2023/07/06 06:55:55;;;;;;;15.55;8.75;;;19.60;99.90;;;;;;4973302;28;20044;-74
2023/07/06 06:58:21;;;;;;;15.48;8.18;;;19.70;99.90;;;;;;4957379;28;20042;-74
2023/07/06 07:00:48;;;;;;;14.50;7.82;;;20.00;99.90;;;;;;4972737;28;20055;-74
2023/07/06 07:03:14;;;;;;;15.45;8.27;;;20.20;99.90;;;;;;4989341;28;20136;-74
2023/07/06 07:05:41;;;;;;;12.00;7.97;;;20.20;99.90;;;;;;4973213;28;20051;-74
2023/07/06 07:08:07;;;;;;;15.13;7.82;;;20.00;99.90;;;;;;4989325;28;20051;-74
2023/07/06 07:10:32;;;;;;;15.57;9.35;;;19.90;99.90;;;;;;4973142;28;20054;-74
2023/07/06 07:12:58;;;;;;;14.65;8.90;;;19.70;99.90;;;;;;4973337;28;20046;-75
2023/07/06 07:15:24;;;;;;;15.65;8.30;;;19.80;99.90;;;;;;4973012;28;20117;-75
2023/07/06 07:17:51;;;;;;;17.20;8.93;;;19.70;99.90;;;;;;4989452;28;20443;-73
2023/07/06 07:20:18;;;;;;;16.75;8.70;;;19.80;99.90;;;;;;4989644;28;20042;-74
2023/07/06 07:22:44;;;;;;;15.57;8.23;;;20.20;99.90;;;;;;4973125;28;20047;-74
2023/07/06 07:25:11;;;;;;;16.67;8.60;;;20.70;99.90;;;;;;4989707;28;20093;-74
2023/07/06 07:27:37;;;;;;;17.25;9.25;;;20.80;99.90;;;;;;4976965;28;20042;-75
2023/07/06 07:30:09;;;;;;;16.52;9.10;;;20.70;99.90;;;;;;4993323;28;20129;-75
2023/07/06 07:32:35;;;;;;;15.85;8.45;;;20.70;99.90;;;;;;4976973;28;20050;-74
2023/07/06 07:35:01;;;;;;;15.00;8.68;;;20.80;99.90;;;;;;4961119;28;20047;-74
2023/07/06 07:37:26;;;;;;;15.98;8.90;;;21.10;99.90;;;;;;4976748;28;20051;-74
2023/07/06 07:39:53;;;;;;;13.43;8.23;;;21.30;99.90;;;;;;4960869;28;20046;-74
2023/07/06 07:42:19;;;;;;;16.67;8.65;;;21.40;99.90;;;;;;4992997;28;20089;-75
2023/07/06 07:44:45;;;;;;;18.33;9.13;;;21.60;99.90;;;;;;4976906;28;20541;-75
2023/07/06 07:47:12;;;;;;;17.05;9.20;;;21.90;99.90;;;;;;4976653;28;20097;-75
2023/07/06 07:49:41;;;;;;;15.68;8.68;;;21.90;99.90;;;;;;4976905;28;20186;-75
2023/07/06 07:52:09;;;;;;;12.93;7.15;;;22.00;99.90;;;;;;4976870;28;20157;-75
2023/07/06 07:54:35;;;;;;;11.70;7.53;;;22.20;99.90;;;;;;4992804;28;20101;-74
2023/07/06 07:57:01;;;;;;;15.00;8.27;;;22.00;99.90;;;;;;4960595;28;20554;-74
2023/07/06 07:59:28;;;;;;;14.88;8.20;;;21.70;99.90;;;;;;4960990;28;20050;-74
2023/07/06 08:01:54;;;;;;;17.17;8.73;;;21.70;99.90;;;;;;4978231;28;20388;-74
2023/07/06 08:04:20;;;;;;;14.77;7.88;;;21.50;99.90;;;;;;4944630;28;20047;-74
2023/07/06 08:06:46;;;;;;;15.27;7.78;;;21.40;99.90;;;;;;4960093;28;20054;-75
2023/07/06 08:09:13;;;;;;;15.48;8.73;;;21.40;99.90;;;;;;4992761;28;20047;-74
2023/07/06 08:11:41;;;;;;;12.65;7.18;;;21.50;99.90;;;;;;4960747;28;20482;-74
2023/07/06 08:14:08;;;;;;;14.00;8.18;;;21.80;99.90;;;;;;4977485;28;20051;-75
2023/07/06 08:16:34;;;;;;;11.13;6.50;;;21.90;99.90;;;;;;4976349;28;20043;-75
2023/07/06 08:19:05;;;;;;;12.48;7.32;;;21.70;99.90;;;;;;4992142;28;20045;-75
2023/07/06 08:21:31;;;;;;;14.25;8.23;;;21.50;99.90;;;;;;4977183;28;20042;-75
2023/07/06 08:23:58;;;;;;;13.18;6.13;;;21.40;99.90;;;;;;4976116;28;20047;-75
2023/07/06 08:26:24;;;;;;;13.40;6.28;;;21.50;99.90;;;;;;4977529;28;20062;-75
2023/07/06 08:28:50;;;;;;;10.80;6.90;;;21.80;99.90;;;;;;4975959;28;20125;-75
2023/07/06 08:31:18;;;;;;;12.75;6.57;;;21.50;99.90;;;;;;4977445;28;20039;-76
2023/07/06 08:33:46;;;;;;;13.02;7.50;;;21.10;99.90;;;;;;4977318;28;20101;-75
2023/07/06 08:36:13;;;;;;;11.13;6.80;;;20.80;99.90;;;;;;4975831;28;20042;-75
2023/07/06 08:38:43;;;;;;;12.95;7.85;;;21.00;99.90;;;;;;4975909;28;20082;-75
2023/07/06 08:41:34;;;;;;;11.77;6.82;;;21.10;99.90;;;;;;4975732;28;20057;-76
2023/07/06 08:44:03;;;;;;;12.63;6.53;;;21.10;99.90;;;;;;4975521;28;20121;-75
2023/07/06 08:46:31;;;;;;;12.48;7.05;;;20.90;99.90;;;;;;4992179;28;20483;-75
2023/07/06 08:48:58;;;;;;;13.65;6.32;;;21.20;99.90;;;;;;4959337;28;20043;-76
2023/07/06 08:51:36;;;;;;;12.45;5.95;;;21.40;99.90;;;;;;4976680;28;20045;-76
2023/07/06 08:54:10;;;;;;;9.73;5.65;;;21.50;99.90;;;;;;4977099;28;20042;-76
2023/07/06 08:56:39;;;;;;;9.75;5.47;;;21.80;99.90;;;;;;4976643;28;20118;-75
2023/07/06 08:59:13;;;;;;;11.10;5.68;;;22.30;99.90;;;;;;4991874;28;20487;-75
2023/07/06 09:01:42;;;;;;;8.63;4.93;;;22.60;99.90;;;;;;4976125;28;20065;-76
2023/07/06 09:04:19;;;;;;;9.27;5.10;;;22.90;99.90;;;;;;4976283;28;20051;-76
2023/07/06 09:06:52;;;;;;;10.85;5.22;;;23.00;99.90;;;;;;4943646;28;20117;-76
2023/07/06 09:09:19;;;;;;;10.70;5.03;;;23.10;99.90;;;;;;4976571;28;20045;-74
2023/07/06 09:11:47;;;;;;;10.60;5.10;;;23.30;99.90;;;;;;4976880;28;20093;-76
2023/07/06 09:14:13;;;;;;;8.30;4.78;;;23.40;99.90;;;;;;4975430;28;20038;-75
2023/07/06 09:16:59;;;;;;;11.07;4.55;;;23.50;99.90;;;;;;4975395;28;20121;-75
2023/07/06 09:19:25;;;;;;;10.90;4.25;;;23.60;99.90;;;;;;4976198;28;20483;-76
2023/07/06 09:21:56;;;;;;;9.43;4.72;;;23.90;99.90;;;;;;4991112;28;20087;-76
2023/07/06 09:24:27;;;;;;;9.57;4.43;;;23.90;97.50;;;;;;4959190;28;20046;-76
2023/07/06 09:26:57;;;;;;;8.95;4.10;;;23.50;98.20;;;;;;4976361;28;20511;-76
2023/07/06 09:29:36;;;;;;;10.13;4.47;;;23.20;96.60;;;;;;4975180;28;20039;-76
2023/07/06 09:32:23;;;;;;;10.57;4.00;;;22.80;96.80;;;;;;4975057;28;20479;-76
2023/07/06 09:34:51;;;;;;;8.77;3.90;;;22.40;97.10;;;;;;4958455;28;20051;-74
2023/07/06 09:37:22;;;;;;;10.25;4.18;;;22.30;97.90;;;;;;4976198;28;20046;-75
2023/07/06 09:40:17;;;;;;;9.68;4.07;;;22.20;98.80;;;;;;4974655;28;20047;-75
2023/07/06 09:42:44;;;;;;;9.88;4.00;;;22.00;98.40;;;;;;4958249;28;20046;-75
2023/07/06 09:45:30;;;;;;;6.55;3.40;;;21.80;99.00;;;;;;4974916;28;20086;-76
2023/07/06 09:48:02;;;;;;;9.73;3.55;;;22.20;99.90;;;;;;4975558;28;20047;-75
2023/07/06 09:50:50;;;;;;;10.75;3.72;;;22.50;98.40;;;;;;4974409;28;20057;-76
2023/07/06 09:53:30;;;;;;;10.27;3.55;;;22.90;99.10;;;;;;4975790;28;20125;-76
2023/07/06 09:55:56;;;;;;;8.50;3.53;;;23.10;98.10;;;;;;4975878;28;20109;-76
2023/07/06 09:58:25;;;;;;;9.73;3.60;;;23.10;98.10;;;;;;4975518;28;20483;-75
2023/07/06 10:01:39;;;;;;;10.40;3.65;;;23.10;97.40;;;;;;4990373;28;20109;-75
2023/07/06 10:04:33;;;;;;;7.88;3.75;;;23.20;97.40;;;;;;4970093;28;20046;-75
2023/07/06 10:07:17;;;;;;;10.15;3.47;;;23.10;96.60;;;;;;4975306;28;20042;-76
2023/07/06 10:09:58;;;;;;;8.15;3.10;;;22.90;97.70;;;;;;4975369;28;20050;-75
2023/07/06 10:12:32;;;;;;;10.23;3.25;;;22.80;96.40;;;;;;4975594;28;20411;-76
2023/07/06 10:15:01;;;;;;;9.63;3.53;;;22.70;96.90;;;;;;4990246;28;20053;-76
2023/07/06 10:17:39;;;;;;;10.50;3.58;;;22.90;97.50;;;;;;4958213;28;20047;-75
2023/07/06 10:20:18;;;;;;;7.68;3.50;;;23.20;97.70;;;;;;4957817;28;20043;-76
2023/07/06 10:23:11;;;;;;;7.75;3.42;;;23.40;97.50;;;;;;4975341;28;20538;-75
2023/07/06 10:25:56;;;;;;;8.52;3.58;;;23.40;95.80;;;;;;4975286;28;20097;-75
2023/07/06 10:28:26;;;;;;;11.02;3.75;;;23.20;96.30;;;;;;4975241;28;20134;-75
2023/07/06 10:30:55;;;;;;;7.75;4.03;;;23.00;97.20;;;;;;4975243;28;20039;-76
2023/07/06 10:33:30;;;;;;;8.85;4.07;;;22.80;97.60;;;;;;4973584;28;20050;-75
2023/07/06 10:35:58;;;;;;;9.48;3.65;;;22.50;97.30;;;;;;4973692;28;20050;-75
2023/07/06 10:38:25;;;;;;;8.68;3.20;;;22.30;97.50;;;;;;4974807;28;20050;-75
2023/07/06 10:41:11;;;;;;;9.10;2.78;;;22.00;97.90;;;;;;4973856;28;20060;-75
2023/07/06 10:43:43;;;;;;;10.20;2.60;;;21.90;97.90;;;;;;4974565;28;20038;-77
2023/07/06 10:46:35;;;;;;;8.27;2.70;;;21.80;97.30;;;;;;4973837;28;20042;-74
2023/07/06 10:49:21;;;;;;;7.00;2.70;;;21.70;96.70;;;;;;4957230;28;20038;-75
2023/07/06 10:51:53;;;;;;;7.55;2.80;;;21.50;97.60;;;;;;4974547;28;20101;-76
2023/07/06 10:54:28;;;;;;;6.00;2.55;;;21.60;97.20;;;;;;4957221;28;20035;-75
2023/07/06 10:57:02;;;;;;;8.25;2.72;;;21.70;98.00;;;;;;4989685;28;20030;-75
2023/07/06 10:59:37;;;;;;;7.40;2.50;;;21.70;98.00;;;;;;4973389;28;20039;-76
2023/07/06 11:02:25;;;;;;;7.05;2.20;;;21.70;97.90;;;;;;4973131;28;20058;-76
2023/07/06 11:05:13;;;;;;;7.25;2.22;;;21.80;97.50;;;;;;4974530;28;20035;-75
2023/07/06 11:07:50;;;;;;;6.30;2.30;;;22.20;98.00;;;;;;4973106;28;20043;-76
2023/07/06 11:10:48;;;;;;;8.35;2.40;;;22.70;97.50;;;;;;4973114;28;20050;-75
2023/07/06 11:13:17;;;;;;;5.22;2.20;;;22.60;95.20;;;;;;4956978;28;20110;-76
2023/07/06 11:15:46;;;;;;;6.80;2.50;;;22.50;95.40;;;;;;4974363;28;20043;-76
2023/07/06 11:18:24;;;;;;;6.68;2.38;;;22.40;95.90;;;;;;4974311;28;20043;-76
2023/07/06 11:20:56;;;;;;;6.90;2.30;;;22.70;96.50;;;;;;4989424;28;20042;-76
2023/07/06 11:23:41;;;;;;;7.32;2.30;;;23.20;96.20;;;;;;4972976;28;20082;-76
2023/07/06 11:26:54;;;;;;;7.95;2.58;;;23.50;95.20;;;;;;4974152;28;20049;-76
2023/07/06 11:29:24;;;;;;;7.75;2.20;;;23.50;93.50;;;;;;4961983;28;20074;-76
2023/07/06 11:32:16;;;;;;;6.22;1.92;;;23.20;93.70;;;;;;4956870;28;20076;-76
2023/07/06 11:35:09;;;;;;;8.00;1.63;;;23.10;93.20;;;;;;4974400;28;20039;-76
2023/07/06 11:38:03;;;;;;;6.68;1.83;;;23.20;94.30;;;;;;4989416;28;20043;-76
2023/07/06 11:40:51;;;;;;;6.13;1.90;;;23.50;92.70;;;;;;4974046;28;20043;-76
2023/07/06 11:43:55;;;;;;;4.95;1.55;;;23.50;92.40;;;;;;4943960;28;20059;-76
2023/07/06 11:47:07;;;;;;;5.55;1.73;;;23.50;90.30;;;;;;4971044;28;20050;-77
2023/07/06 11:49:59;;;;;;;6.35;1.67;;;23.70;91.50;;;;;;4928458;28;20066;-76
2023/07/06 11:52:29;;;;;;;;;;;24.10;90.50;;;;;;4975068;28;20106;-76
2023/07/06 11:55:49;;;;;;;6.53;1.70;;;24.30;86.80;;;;;;4973961;28;19918;-77
2023/07/06 12:01:31;;;;;;;6.03;1.70;;;24.60;84.10;;;;;;4972758;28;20086;-76
2023/07/06 12:04:02;;;;;;;5.95;1.80;;;24.70;85.50;;;;;;4972496;28;20050;-77
2023/07/06 12:06:30;;;;;;;6.25;1.80;;;24.80;83.40;;;;;;4974252;28;20065;-76
2023/07/06 12:09:01;;;;;;;5.00;1.60;;;24.70;82.40;;;;;;4974164;28;20122;-77
2023/07/06 12:11:27;;;;;;;6.53;1.90;;;24.90;83.00;;;;;;4974326;28;20038;-77
2023/07/06 12:13:55;;;;;;;6.25;1.67;;;24.70;81.00;;;;;;4977448;28;20042;-77
2023/07/06 12:16:39;;;;;;;5.57;1.80;;;24.70;82.20;;;;;;4976243;28;20056;-76
2023/07/06 12:19:18;;;;;;;5.28;1.60;;;24.90;81.30;;;;;;4977659;28;20400;-77
2023/07/06 12:21:55;;;;;;;5.47;1.60;;;24.90;80.40;;;;;;4977436;28;20039;-76
2023/07/06 12:24:24;;;;;;;7.10;1.80;;;24.80;78.70;;;;;;4977588;28;20431;-77
2023/07/06 12:26:53;;;;;;;6.65;1.77;;;24.60;80.50;;;;;;4977051;28;20046;-76
2023/07/06 12:29:23;;;;;;;5.35;1.70;;;24.30;80.40;;;;;;4976032;28;20097;-76
2023/07/06 12:31:51;;;;;;;5.20;1.87;;;24.20;82.50;;;;;;4977424;28;20035;-76
2023/07/06 12:34:20;;;;;;;5.60;1.90;;;24.10;84.50;;;;;;4977252;28;20118;-76
2023/07/06 12:36:52;;;;;;;5.50;1.95;;;24.40;85.60;;;;;;4959721;28;20047;-76
2023/07/06 12:39:20;;;;;;;7.18;2.10;;;24.70;86.40;;;;;;4992395;28;20382;-77
2023/07/06 12:41:47;;;;;;;5.65;1.80;;;24.90;83.00;;;;;;4959739;28;20138;-76
2023/07/06 12:44:17;;;;;;;6.68;2.15;;;25.10;82.90;;;;;;4976863;28;20050;-76
2023/07/06 12:46:51;;;;;;;5.68;1.70;;;25.20;80.50;;;;;;4975974;28;20121;-76
2023/07/06 12:49:26;;;;;;;5.40;1.75;;;25.10;81.80;;;;;;4976787;28;20050;-76
2023/07/06 12:51:58;;;;;;;6.18;1.83;;;25.20;77.80;;;;;;4976658;28;20085;-77
2023/07/06 12:54:29;;;;;;;4.72;1.65;;;25.20;77.00;;;;;;4976788;28;20043;-76
2023/07/06 12:57:16;;;;;;;;;;;25.00;77.80;;;;;;4977003;28;20042;-76
2023/07/06 12:59:45;;;;;;;6.65;1.90;;;24.80;76.00;;;;;;4975249;28;19989;-76
2023/07/06 13:02:23;;;;;;;5.68;1.60;;;24.50;75.70;;;;;;4975331;28;20054;-76